Lyons, Colorado
Current Conditions -  °F | °C
As of 1:55 PM on Friday 19 Dec 2014 (Local Time) from KLMO Reporting Station
Clear Clear  
Wind Chill: 52°   Ceiling: Unl
Heat Index: 52°   Visibility: 10mi
Dew Point: 13°   Wind: 7mph
Humidity: 21%   Direction: 110°ESE
Pressure: 29.98"   Gusts: NA
Location:  40.22°N, 105.27°W
Report Text: KLMO 192055Z AUTO 11006KT 10SM CLR 11/M11 A2998 RMK AO2 T01101108
Loading
Personal Weather Stations






























Interactive Weather Map New forecast layout! Learn more

10-Day Weather Forecast

Advertisements
Track Severe Weather on mobile